Terminal Aerodrome Forecast
Issued by NWS Lake Charles, LA

Home | Current Version | Previous Version | Text Only | Print | Product List | Glossary On
Versions: 1 2 3 4 5 6 7 8 9 10 11 12 13 14 15 16 17 18 19 20 21
000
FTUS44 KLCH 271425 AAA
TAFAEX
TAF AMD
KAEX 271425Z 2714/2812 32015G25KT P6SM -SHRA SCT010 OVC060
      TEMPO 2714/2715 VRB20G30KT BKN009
     FM271500 36015G20KT P6SM VCSH BKN060
     FM271800 06012KT P6SM BKN080
     FM272000 07015KT P6SM VCSH BKN050=

USA.gov is the U.S. government's official web portal to all federal, state and local government web resources and services.